createdAt,value
2023-05-24T00:01:59.364Z,41.30
2023-05-24T00:04:30.467Z,44.80
2023-05-24T00:06:58.554Z,38.40
2023-05-24T00:09:26.571Z,37.00
2023-05-24T00:11:54.512Z,41.10
2023-05-24T00:14:23.192Z,38.30
2023-05-24T00:16:51.357Z,43.40
2023-05-24T00:19:22.577Z,37.10
2023-05-24T00:21:50.799Z,38.60
2023-05-24T00:24:19.125Z,37.50
2023-05-24T00:26:48.463Z,42.20
2023-05-24T00:29:16.438Z,35.90
2023-05-24T00:31:44.416Z,38.40
2023-05-24T00:34:12.500Z,44.00
2023-05-24T00:36:40.720Z,36.90
2023-05-24T00:39:10.208Z,40.70
2023-05-24T00:41:38.173Z,37.00
2023-05-24T00:44:06.272Z,38.90
2023-05-24T00:46:35.235Z,40.70
2023-05-24T00:49:04.195Z,39.70
2023-05-24T00:51:34.048Z,36.20
2023-05-24T00:54:02.692Z,35.60
2023-05-24T00:56:31.618Z,39.50
2023-05-24T00:59:00.335Z,33.50
2023-05-24T01:01:31.166Z,36.30
2023-05-24T01:04:00.516Z,38.80
2023-05-24T01:06:30.897Z,39.30
2023-05-24T01:09:11.849Z,34.90
2023-05-24T01:12:00.071Z,37.10
2023-05-24T01:14:42.304Z,34.90
2023-05-24T01:17:24.493Z,39.40
2023-05-24T01:20:02.377Z,39.40
2023-05-24T01:23:05.235Z,37.30
2023-05-24T01:25:54.783Z,39.00
2023-05-24T01:28:24.718Z,42.70
2023-05-24T01:30:56.018Z,42.20
2023-05-24T01:33:25.876Z,40.20
2023-05-24T01:35:53.832Z,42.60
2023-05-24T01:38:21.798Z,40.20
2023-05-24T01:40:58.023Z,44.50
2023-05-24T01:43:38.001Z,41.40
2023-05-24T01:46:23.314Z,42.40
2023-05-24T01:49:03.647Z,47.20
2023-05-24T01:51:40.645Z,43.50
2023-05-24T01:54:10.110Z,44.40
2023-05-24T01:56:39.212Z,45.20
2023-05-24T01:59:07.396Z,41.90
2023-05-24T02:01:36.579Z,42.00
2023-05-24T02:04:04.884Z,43.80
2023-05-24T02:06:32.862Z,44.50
2023-05-24T02:09:00.807Z,39.50
2023-05-24T02:11:28.838Z,44.50
2023-05-24T02:13:56.792Z,46.80
2023-05-24T02:16:26.721Z,39.50
2023-05-24T02:18:54.707Z,36.20
2023-05-24T02:21:23.602Z,37.00
2023-05-24T02:23:51.521Z,34.70
2023-05-24T02:26:19.720Z,32.60
2023-05-24T02:28:48.420Z,34.30
2023-05-24T02:31:16.733Z,33.00
2023-05-24T02:33:44.794Z,30.30
2023-05-24T02:36:13.425Z,34.60
2023-05-24T02:38:41.436Z,33.60
2023-05-24T02:41:09.395Z,29.30
2023-05-24T02:43:37.395Z,31.20
2023-05-24T02:46:05.545Z,27.10
2023-05-24T02:48:33.709Z,26.20
2023-05-24T02:51:03.397Z,27.80
2023-05-24T02:53:31.644Z,25.80
2023-05-24T02:56:00.193Z,25.80
2023-05-24T02:58:31.518Z,25.70
2023-05-24T03:00:59.638Z,24.80
2023-05-24T03:03:28.135Z,22.90
2023-05-24T03:05:56.116Z,29.50
2023-05-24T03:08:24.158Z,23.90
2023-05-24T03:10:52.124Z,26.90
2023-05-24T03:13:20.108Z,26.80
2023-05-24T03:15:49.133Z,25.40
2023-05-24T03:18:17.129Z,25.20
2023-05-24T03:20:46.503Z,24.50
2023-05-24T03:23:15.209Z,30.50
2023-05-24T03:25:44.033Z,24.90
2023-05-24T03:28:14.744Z,27.20
2023-05-24T03:30:44.813Z,29.90
2023-05-24T03:33:13.348Z,25.00
2023-05-24T03:35:41.310Z,31.90
2023-05-24T03:38:10.598Z,27.90
2023-05-24T03:40:39.878Z,29.60
2023-05-24T03:43:13.790Z,28.60
2023-05-24T03:45:48.657Z,28.50
2023-05-24T03:48:17.084Z,32.00
2023-05-24T03:50:45.220Z,34.00
2023-05-24T03:53:13.408Z,32.10
2023-05-24T03:55:41.378Z,38.70
2023-05-24T03:58:09.412Z,36.70
2023-05-24T04:00:37.449Z,32.70
2023-05-24T04:03:06.877Z,38.40
2023-05-24T04:05:35.466Z,33.30
2023-05-24T04:08:03.729Z,33.50
2023-05-24T04:10:31.718Z,28.40
2023-05-24T04:13:00.865Z,33.90
2023-05-24T04:15:28.879Z,31.30
2023-05-24T04:17:57.156Z,34.50
2023-05-24T04:20:25.918Z,36.60
2023-05-24T04:22:54.473Z,27.90
2023-05-24T04:25:23.272Z,26.80
2023-05-24T04:27:51.299Z,30.90
2023-05-24T04:30:19.652Z,27.60
2023-05-24T04:32:48.733Z,31.10
2023-05-24T04:35:17.251Z,27.10
2023-05-24T04:37:46.702Z,30.80
2023-05-24T04:40:16.445Z,28.40
2023-05-24T04:42:44.407Z,29.30
2023-05-24T04:45:12.409Z,30.40
2023-05-24T04:47:41.499Z,27.90
2023-05-24T04:50:10.065Z,23.20
2023-05-24T04:52:38.324Z,26.40
2023-05-24T04:55:06.764Z,28.00
2023-05-24T04:57:34.839Z,24.50
2023-05-24T05:00:02.913Z,28.20
2023-05-24T05:02:31.344Z,32.40
2023-05-24T05:05:00.613Z,22.00
2023-05-24T05:07:28.602Z,24.20
2023-05-24T05:09:57.023Z,20.00
2023-05-24T05:12:25.097Z,27.90
2023-05-24T05:14:53.380Z,24.60
2023-05-24T05:17:21.817Z,26.20
2023-05-24T05:19:49.785Z,22.00
2023-05-24T05:22:17.860Z,27.90
2023-05-24T05:24:45.834Z,24.40
2023-05-24T05:27:13.844Z,27.40
2023-05-24T05:29:41.814Z,25.10
2023-05-24T05:32:10.031Z,24.80
2023-05-24T05:34:38.042Z,22.40
2023-05-24T05:37:06.077Z,20.40
2023-05-24T05:39:34.060Z,23.10
2023-05-24T05:42:02.517Z,21.50
2023-05-24T05:44:31.127Z,25.90
2023-05-24T05:46:59.705Z,26.10
2023-05-24T05:49:27.679Z,23.90
2023-05-24T05:51:55.766Z,30.20
2023-05-24T05:54:23.994Z,26.40
2023-05-24T05:56:52.393Z,23.90
2023-05-24T05:59:20.351Z,26.10
2023-05-24T06:01:49.310Z,23.90
2023-05-24T06:04:18.166Z,23.40
2023-05-24T06:06:49.661Z,24.00
2023-05-24T06:09:17.966Z,25.90
2023-05-24T06:11:46.001Z,24.90
2023-05-24T06:14:18.494Z,24.00
2023-05-24T06:16:48.173Z,25.90
2023-05-24T06:19:17.087Z,23.00
2023-05-24T06:21:48.513Z,22.20
2023-05-24T06:24:21.356Z,22.90
2023-05-24T06:26:52.415Z,23.40
2023-05-24T06:29:22.113Z,26.50
2023-05-24T06:31:50.844Z,23.70
2023-05-24T06:34:21.663Z,24.20
2023-05-24T06:36:51.145Z,21.70
2023-05-24T06:39:19.590Z,23.70
2023-05-24T06:41:47.700Z,21.40
2023-05-24T06:44:16.519Z,21.90
2023-05-24T06:46:44.537Z,22.60
2023-05-24T06:49:12.894Z,25.20
2023-05-24T06:51:40.973Z,20.40
2023-05-24T06:54:09.073Z,20.90
2023-05-24T06:56:37.081Z,18.70
2023-05-24T06:59:05.153Z,20.50
2023-05-24T07:01:33.847Z,22.60
2023-05-24T07:04:01.851Z,24.10
2023-05-24T07:06:29.818Z,20.90
2023-05-24T07:08:57.715Z,17.30
2023-05-24T07:11:25.652Z,20.20
2023-05-24T07:13:53.606Z,19.60
2023-05-24T07:16:21.960Z,19.80
2023-05-24T07:18:50.342Z,23.50
2023-05-24T07:21:18.327Z,19.90
2023-05-24T07:23:46.607Z,18.90
2023-05-24T07:26:14.540Z,21.20
2023-05-24T07:28:42.424Z,21.30
2023-05-24T07:31:10.601Z,36.10
2023-05-24T07:33:38.931Z,37.80
2023-05-24T07:36:07.366Z,37.40
2023-05-24T07:38:36.277Z,37.20
2023-05-24T07:41:04.856Z,33.20
2023-05-24T07:43:33.238Z,32.40
2023-05-24T07:46:01.265Z,29.20
2023-05-24T07:48:29.292Z,26.20
2023-05-24T07:50:57.382Z,19.50
2023-05-24T07:53:25.463Z,23.40
2023-05-24T07:55:53.386Z,22.70
2023-05-24T07:58:21.393Z,16.20
2023-05-24T08:00:49.332Z,16.90
2023-05-24T08:03:18.114Z,17.50
2023-05-24T08:05:46.388Z,15.90
2023-05-24T08:08:14.790Z,13.70
2023-05-24T08:10:45.575Z,12.10
2023-05-24T08:13:13.694Z,13.40
2023-05-24T08:15:42.375Z,10.20
2023-05-24T08:18:10.822Z,10.10
2023-05-24T08:20:39.038Z,9.90
2023-05-24T08:23:07.041Z,9.80
2023-05-24T08:34:33.721Z,5.40
2023-05-24T08:37:02.038Z,5.70
2023-05-24T08:39:30.134Z,5.60
2023-05-24T08:42:09.177Z,6.50
2023-05-24T08:44:47.353Z,7.20
2023-05-24T08:47:15.855Z,8.10
2023-05-24T08:49:44.657Z,8.80
2023-05-24T08:52:13.082Z,7.90
2023-05-24T08:54:41.823Z,9.80
2023-05-24T08:57:12.237Z,8.80
2023-05-24T08:59:42.101Z,9.40
2023-05-24T09:02:14.588Z,7.70
2023-05-24T09:04:44.466Z,10.70
2023-05-24T09:07:14.881Z,15.00
2023-05-24T09:09:47.012Z,8.70
2023-05-24T09:12:32.526Z,8.00
2023-05-24T09:15:07.244Z,7.70
2023-05-24T09:17:37.016Z,8.30
2023-05-24T09:20:11.248Z,8.30
2023-05-24T09:22:42.521Z,8.30
2023-05-24T09:25:14.285Z,10.10
2023-05-24T09:27:45.612Z,6.60
2023-05-24T09:30:15.737Z,7.30
2023-05-24T09:32:56.327Z,7.60
2023-05-24T09:35:27.105Z,8.80
2023-05-24T09:38:00.160Z,8.30
2023-05-24T09:40:30.116Z,13.90
2023-05-24T09:43:09.662Z,10.70
2023-05-24T09:45:47.439Z,9.90
2023-05-24T09:48:18.307Z,11.30
2023-05-24T09:51:09.525Z,9.60
2023-05-24T09:53:37.808Z,10.50
2023-05-24T09:56:08.558Z,9.00
2023-05-24T09:58:36.902Z,9.50
2023-05-24T10:01:10.976Z,10.50
2023-05-24T10:03:39.621Z,9.00
2023-05-24T10:06:11.615Z,8.50
2023-05-24T10:08:40.267Z,8.40
2023-05-24T10:11:10.934Z,9.20
2023-05-24T10:13:42.496Z,9.70
2023-05-24T10:16:20.915Z,10.90
2023-05-24T10:18:50.879Z,15.20
2023-05-24T10:21:22.323Z,16.90
2023-05-24T10:23:58.179Z,18.80
2023-05-24T10:26:29.614Z,13.40
2023-05-24T10:29:06.787Z,17.30
2023-05-24T10:31:39.072Z,16.80
2023-05-24T10:34:09.424Z,15.90
2023-05-24T10:36:40.624Z,15.60
2023-05-24T10:50:22.053Z,17.40
2023-05-24T10:52:50.136Z,13.50
2023-05-24T10:55:21.268Z,14.30
2023-05-24T10:57:49.318Z,17.20
2023-05-24T11:00:47.905Z,13.00
2023-05-24T11:03:10.529Z,14.60
2023-05-24T11:05:50.702Z,15.20
2023-05-24T11:08:33.563Z,13.10
2023-05-24T11:13:47.409Z,12.20
2023-05-24T11:16:45.590Z,14.20
2023-05-24T11:19:24.418Z,12.30
2023-05-24T11:21:59.167Z,12.50
2023-05-24T11:24:29.137Z,12.60
2023-05-24T11:26:58.105Z,14.80
2023-05-24T11:29:26.422Z,13.80
2023-05-24T11:31:58.170Z,10.80
2023-05-24T11:34:27.561Z,20.10
2023-05-24T11:36:56.473Z,23.40
2023-05-24T11:39:25.882Z,29.20
2023-05-24T11:41:54.383Z,26.90
2023-05-24T11:44:22.740Z,26.60
2023-05-24T11:46:57.746Z,25.50
2023-05-24T11:49:26.840Z,21.80
2023-05-24T11:51:57.182Z,22.90
2023-05-24T11:54:27.504Z,23.40
2023-05-24T11:56:55.998Z,21.40
2023-05-24T11:59:26.130Z,18.10
2023-05-24T12:02:00.350Z,14.30
2023-05-24T12:04:30.528Z,15.20
2023-05-24T12:06:59.370Z,18.50
2023-05-24T12:09:28.791Z,19.90
2023-05-24T12:11:58.714Z,23.50
2023-05-24T12:14:33.396Z,30.60
2023-05-24T12:17:02.164Z,27.40
2023-05-24T12:19:35.177Z,34.90
2023-05-24T12:28:57.150Z,40.50
2023-05-24T12:31:26.956Z,37.00
2023-05-24T12:33:55.159Z,38.90
2023-05-24T12:36:23.701Z,38.30
2023-05-24T12:38:51.744Z,37.90
2023-05-24T12:41:20.675Z,45.20
2023-05-24T12:43:52.134Z,37.30
2023-05-24T12:46:20.093Z,37.30
2023-05-24T12:48:48.155Z,38.20
2023-05-24T12:51:16.732Z,33.20
2023-05-24T12:53:45.061Z,33.00
2023-05-24T12:56:13.137Z,29.60
2023-05-24T12:58:41.587Z,28.80
2023-05-24T13:01:09.803Z,30.90
2023-05-24T13:03:39.579Z,24.80
2023-05-24T13:06:08.769Z,25.20
2023-05-24T13:08:40.052Z,29.60
2023-05-24T13:11:08.982Z,30.90
2023-05-24T13:13:38.351Z,35.30
2023-05-24T13:16:08.875Z,29.30
2023-05-24T13:18:37.595Z,31.80
2023-05-24T13:21:06.456Z,32.70
2023-05-24T13:23:37.867Z,29.30
2023-05-24T13:26:09.365Z,23.40
2023-05-24T13:28:39.115Z,27.20
2023-05-24T13:31:09.434Z,26.90
2023-05-24T13:33:38.025Z,27.10
2023-05-24T13:36:07.260Z,26.50
2023-05-24T13:38:35.626Z,26.50
2023-05-24T13:41:03.878Z,21.20
2023-05-24T13:43:31.981Z,27.30
2023-05-24T13:46:01.232Z,27.70
2023-05-24T13:48:29.484Z,26.10
2023-05-24T13:50:57.795Z,13.90
2023-05-24T13:53:27.825Z,15.30
2023-05-24T13:55:56.672Z,13.90
2023-05-24T13:58:24.722Z,17.00
2023-05-24T14:00:52.862Z,25.90
2023-05-24T14:03:21.011Z,36.80
2023-05-24T14:05:49.042Z,35.20
2023-05-24T14:08:17.792Z,37.00
2023-05-24T14:10:47.194Z,36.20
2023-05-24T14:13:45.352Z,35.70
2023-05-24T14:16:05.429Z,32.80
2023-05-24T14:18:35.430Z,30.30
2023-05-24T14:21:03.646Z,23.50
2023-05-24T14:23:33.030Z,22.70
2023-05-24T14:26:02.212Z,17.70
2023-05-24T14:28:30.236Z,16.20
2023-05-24T14:31:02.173Z,13.60
2023-05-24T14:33:30.297Z,11.80
2023-05-24T14:35:58.435Z,12.20
2023-05-24T14:38:26.568Z,10.20
2023-05-24T14:40:57.104Z,10.40
2023-05-24T14:43:31.467Z,8.90
2023-05-24T14:46:00.382Z,8.60
2023-05-24T14:48:28.425Z,9.30
2023-05-24T14:50:56.644Z,8.20
2023-05-24T14:53:24.896Z,9.10
2023-05-24T14:55:56.097Z,7.60
2023-05-24T15:02:49.367Z,9.40
2023-05-24T15:05:29.459Z,8.10
2023-05-24T15:07:57.436Z,7.50
2023-05-24T15:10:25.752Z,7.70
2023-05-24T15:12:54.075Z,8.00
2023-05-24T15:15:22.622Z,9.00
2023-05-24T15:17:50.782Z,7.80
2023-05-24T15:20:19.683Z,8.70
2023-05-24T15:22:47.902Z,7.80
2023-05-24T15:25:16.096Z,8.70
2023-05-24T15:27:46.634Z,9.00
2023-05-24T15:30:26.649Z,8.30
2023-05-24T15:32:54.664Z,8.10
2023-05-24T15:35:23.038Z,7.60
2023-05-24T15:37:51.530Z,8.20
2023-05-24T15:40:19.538Z,9.10
2023-05-24T15:42:48.271Z,9.10
2023-05-24T15:45:16.497Z,9.90
2023-05-24T15:47:44.721Z,13.20
2023-05-24T15:50:13.087Z,9.50
2023-05-24T15:52:41.442Z,9.60
2023-05-24T15:55:09.866Z,9.80
2023-05-24T15:57:38.104Z,15.40
2023-05-24T16:00:06.871Z,10.00
2023-05-24T16:02:40.186Z,9.80
2023-05-24T16:05:09.165Z,9.20
2023-05-24T16:07:37.441Z,10.10
2023-05-24T16:10:05.887Z,12.60
2023-05-24T16:12:34.113Z,9.60
2023-05-24T16:15:02.205Z,10.70
2023-05-24T16:17:30.332Z,10.10
2023-05-24T16:19:59.415Z,9.70
2023-05-24T16:22:27.666Z,10.40
2023-05-24T16:24:55.890Z,11.60
2023-05-24T16:27:24.168Z,9.00
2023-05-24T16:29:52.295Z,7.80
2023-05-24T16:32:20.958Z,8.50
2023-05-24T16:34:56.579Z,9.20
2023-05-24T16:37:25.456Z,8.10
2023-05-24T16:39:53.645Z,10.80
2023-05-24T16:42:21.900Z,9.60
2023-05-24T16:44:49.917Z,10.00
2023-05-24T16:47:18.295Z,11.60
2023-05-24T16:49:46.402Z,10.30
2023-05-24T16:52:14.742Z,9.50
2023-05-24T16:54:42.800Z,8.90
2023-05-24T16:57:10.911Z,8.70
2023-05-24T16:59:39.068Z,8.90
2023-05-24T17:02:07.064Z,9.30
2023-05-24T17:04:35.324Z,9.80
2023-05-24T17:07:04.266Z,9.10
2023-05-24T17:09:32.562Z,9.40
2023-05-24T17:12:00.651Z,11.00
2023-05-24T17:14:28.881Z,9.30
2023-05-24T17:16:57.205Z,9.20
2023-05-24T17:19:26.387Z,8.30
2023-05-24T17:21:57.888Z,9.60
2023-05-24T17:24:27.868Z,9.70
2023-05-24T17:26:59.440Z,10.60
2023-05-24T17:29:30.136Z,11.80
2023-05-24T17:31:58.964Z,9.30
2023-05-24T17:34:27.189Z,11.00
2023-05-24T17:36:55.587Z,9.60
2023-05-24T17:39:23.961Z,11.00
2023-05-24T17:41:52.256Z,12.10
2023-05-24T17:44:20.551Z,11.90
2023-05-24T17:46:49.174Z,11.80
2023-05-24T17:49:17.509Z,13.10
2023-05-24T17:51:45.849Z,11.00
2023-05-24T17:54:14.248Z,10.10
2023-05-24T17:56:42.253Z,10.70
2023-05-24T17:59:10.305Z,9.80
2023-05-24T18:01:39.075Z,10.50
2023-05-24T18:04:08.685Z,11.10
2023-05-24T18:06:38.666Z,10.40
2023-05-24T18:09:11.354Z,10.50
2023-05-24T18:11:39.795Z,10.80
2023-05-24T18:14:07.777Z,10.30
2023-05-24T18:16:37.033Z,10.10
2023-05-24T18:19:05.896Z,15.30
2023-05-24T18:21:34.817Z,11.70
2023-05-24T18:24:03.291Z,10.60
2023-05-24T18:26:31.238Z,11.90
2023-05-24T18:28:59.560Z,11.30
2023-05-24T18:31:28.530Z,10.30
2023-05-24T18:33:58.931Z,10.90
2023-05-24T18:36:33.131Z,13.10
2023-05-24T18:39:01.444Z,9.70
2023-05-24T18:41:29.739Z,10.60
2023-05-24T18:43:58.205Z,10.90
2023-05-24T18:46:27.888Z,10.00
2023-05-24T18:48:58.621Z,10.50
2023-05-24T18:51:27.011Z,13.10
2023-05-24T18:53:55.086Z,15.40
2023-05-24T18:56:23.339Z,9.40
2023-05-24T18:58:52.169Z,12.80
2023-05-24T19:01:20.275Z,12.50
2023-05-24T19:03:48.315Z,12.60
2023-05-24T19:06:16.749Z,14.50
2023-05-24T19:08:44.775Z,10.30
2023-05-24T19:11:13.753Z,13.60
2023-05-24T19:13:43.675Z,16.80
2023-05-24T19:16:17.540Z,11.80
2023-05-24T19:18:46.659Z,13.00
2023-05-24T19:21:24.259Z,11.80
2023-05-24T19:23:52.522Z,14.10
2023-05-24T19:26:20.944Z,14.50
2023-05-24T19:28:54.198Z,11.70
2023-05-24T19:31:24.420Z,13.20
2023-05-24T19:34:00.534Z,13.80
2023-05-24T19:36:33.161Z,16.00
2023-05-24T19:39:01.588Z,14.40
2023-05-24T19:41:30.935Z,14.60
2023-05-24T19:44:00.244Z,18.50
2023-05-24T19:46:29.562Z,15.30
2023-05-24T19:48:58.408Z,15.40
2023-05-24T19:51:26.396Z,13.00
2023-05-24T19:53:54.947Z,25.10
2023-05-24T19:56:24.132Z,17.80
2023-05-24T19:58:55.530Z,16.10
2023-05-24T20:01:26.740Z,18.50
2023-05-24T20:03:55.471Z,15.60
2023-05-24T20:06:23.612Z,15.30
2023-05-24T20:08:52.866Z,17.10
2023-05-24T20:11:21.061Z,19.40
2023-05-24T20:13:49.417Z,13.90
2023-05-24T20:16:19.447Z,16.30
2023-05-24T20:18:47.739Z,15.00
2023-05-24T20:21:17.981Z,16.60
2023-05-24T20:23:46.294Z,13.00
2023-05-24T20:26:14.658Z,12.90
2023-05-24T20:28:43.246Z,19.40
2023-05-24T20:31:11.590Z,16.40
2023-05-24T20:33:43.374Z,17.20
2023-05-24T20:36:11.838Z,18.50
2023-05-24T20:38:39.954Z,13.80
2023-05-24T20:41:10.760Z,17.40
2023-05-24T20:43:39.013Z,17.80
2023-05-24T20:46:07.191Z,18.90
2023-05-24T20:48:36.178Z,16.60
2023-05-24T20:51:04.997Z,17.60
2023-05-24T20:53:32.943Z,14.40
2023-05-24T20:56:02.026Z,21.40
2023-05-24T20:58:31.316Z,23.20
2023-05-24T21:00:59.418Z,18.80
2023-05-24T21:03:27.483Z,17.50
2023-05-24T21:05:55.780Z,18.90
2023-05-24T21:08:24.176Z,18.90
2023-05-24T21:10:55.554Z,16.20
2023-05-24T21:13:25.603Z,20.40
2023-05-24T21:15:54.736Z,18.50
2023-05-24T21:18:25.022Z,23.10
2023-05-24T21:20:52.951Z,20.10
2023-05-24T21:23:20.935Z,16.50
2023-05-24T21:25:48.895Z,15.30
2023-05-24T21:28:16.969Z,15.40
2023-05-24T21:30:44.903Z,21.40
2023-05-24T21:33:12.899Z,20.00
2023-05-24T21:35:40.932Z,21.20
2023-05-24T21:38:09.123Z,19.80
2023-05-24T21:40:37.673Z,18.70
2023-05-24T21:43:05.885Z,19.30
2023-05-24T21:45:33.883Z,17.00
2023-05-24T21:48:01.875Z,16.70
2023-05-24T21:50:29.805Z,22.10
2023-05-24T21:52:57.728Z,22.00
2023-05-24T21:55:25.759Z,20.70
2023-05-24T21:57:53.686Z,20.30
2023-05-24T22:00:21.889Z,18.80
2023-05-24T22:02:49.907Z,24.10
2023-05-24T22:05:18.771Z,22.10
2023-05-24T22:07:46.723Z,18.40
2023-05-24T22:10:17.902Z,19.00
2023-05-24T22:12:45.974Z,24.70
2023-05-24T22:15:14.828Z,25.70
2023-05-24T22:17:46.783Z,16.90
2023-05-24T22:20:17.313Z,22.80
2023-05-24T22:22:48.964Z,23.10
2023-05-24T22:25:21.032Z,24.40
2023-05-24T22:27:57.497Z,21.00
2023-05-24T22:30:30.571Z,18.70
2023-05-24T22:33:18.931Z,27.30
2023-05-24T22:35:46.940Z,26.40
2023-05-24T22:38:15.115Z,26.00
2023-05-24T22:40:49.229Z,22.70
2023-05-24T22:43:20.176Z,22.80
2023-05-24T22:45:49.595Z,29.80
2023-05-24T22:48:18.604Z,25.70
2023-05-24T22:50:46.707Z,24.20
2023-05-24T22:53:14.616Z,27.90
2023-05-24T22:55:43.142Z,27.20
2023-05-24T22:58:11.404Z,22.80
2023-05-24T23:00:39.303Z,25.00
2023-05-24T23:03:07.758Z,27.90
2023-05-24T23:05:35.877Z,24.20
2023-05-24T23:08:05.117Z,25.90
2023-05-24T23:10:33.097Z,28.80
2023-05-24T23:13:01.059Z,30.20
2023-05-24T23:15:29.077Z,30.30
2023-05-24T23:17:57.172Z,25.10
2023-05-24T23:20:26.165Z,24.60
2023-05-24T23:22:54.546Z,27.20
2023-05-24T23:25:22.480Z,26.60
2023-05-24T23:27:50.488Z,27.10
2023-05-24T23:30:18.401Z,30.50
2023-05-24T23:32:46.426Z,22.90
2023-05-24T23:35:14.494Z,25.80
2023-05-24T23:37:42.411Z,28.80
2023-05-24T23:40:10.948Z,25.90
2023-05-24T23:42:39.004Z,33.70
2023-05-24T23:45:07.248Z,26.90
2023-05-24T23:47:35.299Z,29.40
2023-05-24T23:50:03.624Z,25.70
2023-05-24T23:52:31.594Z,26.10
2023-05-24T23:54:59.506Z,28.10
2023-05-24T23:57:27.409Z,28.00
2023-05-24T23:59:58.383Z,29.30
